メインページ
METAR-TAF:

METAR-TAF

空港 :

サンクトペテルブルク, ロシア

プルコヴォ空港

緯度: 59-58N, 経度: 030-18E, 海抜: 4m

現時点の気象観測

当レポートは25分前の23:30(UTC)に作成
東/北東の風 8kt
気温 -12°C
湿度 72%
気圧 1034 hPa
視程10km以上
高度3000ftの千切れ雲あり

METAR: ULLI 242330Z 07004MPS 9999 BKN030 M12/M16 Q1034 R10R/420545 NOSIG

時間: 02:55 (23:55 UTC)

予報

当レポートは57分前の22:58(UTC)に作成
予報は25日の 00時(UTC)から 25日の 24時(UTC)まで有効
北/北東の風 6kt、最大16ktの突風を伴う
視程: 6000m
高度1100ftの千切れ雲あり
25日の 01時(UTC)から 25日の 07時(UTC)まで一時的に
視程: 1200m
高度400ftの千切れ雲あり
高度1700ftの千切れ雲あり
小雪, 靄
25日の 07時(UTC)から 25日の 18時(UTC)まで一時的に
北東の風 12kt、最大21ktの突風を伴う
視程: 2000m
高度500ftの千切れ雲あり
高度1500ftの千切れ雲あり
小雪, 靄
25日の 18時(UTC)から 25日の 24時(UTC)まで一時的に
視程: 1200m
高度400ftの千切れ雲あり
高度1500ftの千切れ雲あり
小雪, 靄

TAF: ULLI 242258Z 2500/2524 02003G08MPS 6000 BKN011 TEMPO 2501/2507 1200 -SN BR BKN004 BKN017 TEMPO 2507/2518 04006G11MPS 2000 -SN BR BKN005 BKN015 TEMPO 2518/2524 1200 -SN BR BKN004 BKN015

4,000以上の空港の気象観測と天気予報(METAR報とTAF報)

利用可能な観測所は地図上に黄色い丸と赤い丸で示す。

丸の上にカーソルを重ねると観測所名を参照できる。

次にクリックすると気象観測と天気予報を参照できる。

マップの切り替え:黒色「×」印の緑ボタンをクリックして拡大、「-」印の緑ボタンをクリックして縮小、緑色の三角印をクリックして隣りの地図に切り替え


METAR-TAF: